sensor_id;sensor_type;location;lat;lon;timestamp;P1;durP1;ratioP1;P2;durP2;ratioP2
51692;SDS011;37777;53.066;21.638;2023-02-22T00:02:30;4.22;;;3.28;;
51692;SDS011;37777;53.066;21.638;2023-02-22T00:09:33;3.80;;;3.50;;
51692;SDS011;37777;53.066;21.638;2023-02-22T00:16:35;3.40;;;3.10;;
51692;SDS011;37777;53.066;21.638;2023-02-22T00:23:38;3.28;;;3.08;;
51692;SDS011;37777;53.066;21.638;2023-02-22T00:37:53;4.70;;;3.00;;
51692;SDS011;37777;53.066;21.638;2023-02-22T00:44:56;4.13;;;3.17;;
51692;SDS011;37777;53.066;21.638;2023-02-22T00:51:58;4.88;;;3.47;;
51692;SDS011;37777;53.066;21.638;2023-02-22T00:59:00;6.20;;;3.20;;
51692;SDS011;37777;53.066;21.638;2023-02-22T01:06:02;6.95;;;4.03;;
51692;SDS011;37777;53.066;21.638;2023-02-22T01:13:05;4.95;;;3.78;;
51692;SDS011;37777;53.066;21.638;2023-02-22T01:20:10;3.90;;;3.55;;
51692;SDS011;37777;53.066;21.638;2023-02-22T01:27:15;4.07;;;3.58;;
51692;SDS011;37777;53.066;21.638;2023-02-22T01:34:18;3.97;;;3.58;;
51692;SDS011;37777;53.066;21.638;2023-02-22T01:41:20;7.63;;;4.25;;
51692;SDS011;37777;53.066;21.638;2023-02-22T01:48:25;4.20;;;3.70;;
51692;SDS011;37777;53.066;21.638;2023-02-22T01:55:31;3.97;;;3.67;;
51692;SDS011;37777;53.066;21.638;2023-02-22T02:02:37;9.52;;;4.20;;
51692;SDS011;37777;53.066;21.638;2023-02-22T02:09:48;3.95;;;3.05;;
51692;SDS011;37777;53.066;21.638;2023-02-22T02:16:55;4.22;;;3.45;;
51692;SDS011;37777;53.066;21.638;2023-02-22T02:38:33;3.83;;;3.20;;
51692;SDS011;37777;53.066;21.638;2023-02-22T02:45:39;5.55;;;3.67;;
51692;SDS011;37777;53.066;21.638;2023-02-22T02:52:42;5.03;;;3.47;;
51692;SDS011;37777;53.066;21.638;2023-02-22T02:59:45;3.70;;;3.40;;
51692;SDS011;37777;53.066;21.638;2023-02-22T03:06:57;4.57;;;3.42;;
51692;SDS011;37777;53.066;21.638;2023-02-22T03:28:31;3.20;;;3.00;;
51692;SDS011;37777;53.066;21.638;2023-02-22T03:35:35;4.50;;;2.95;;
51692;SDS011;37777;53.066;21.638;2023-02-22T03:42:45;3.40;;;2.80;;
51692;SDS011;37777;53.066;21.638;2023-02-22T03:49:50;3.43;;;3.13;;
51692;SDS011;37777;53.066;21.638;2023-02-22T03:56:59;3.40;;;3.10;;
51692;SDS011;37777;53.066;21.638;2023-02-22T04:04:09;3.55;;;3.25;;
51692;SDS011;37777;53.066;21.638;2023-02-22T04:11:11;3.20;;;3.00;;
51692;SDS011;37777;53.066;21.638;2023-02-22T04:18:13;3.42;;;3.13;;
51692;SDS011;37777;53.066;21.638;2023-02-22T04:25:16;6.00;;;4.28;;
51692;SDS011;37777;53.066;21.638;2023-02-22T04:32:19;7.90;;;5.55;;
51692;SDS011;37777;53.066;21.638;2023-02-22T04:39:21;10.18;;;5.40;;
51692;SDS011;37777;53.066;21.638;2023-02-22T04:46:23;12.85;;;6.88;;
51692;SDS011;37777;53.066;21.638;2023-02-22T04:53:25;5.60;;;4.05;;
51692;SDS011;37777;53.066;21.638;2023-02-22T05:00:27;4.45;;;3.15;;
51692;SDS011;37777;53.066;21.638;2023-02-22T05:07:29;4.57;;;3.50;;
51692;SDS011;37777;53.066;21.638;2023-02-22T05:14:31;4.05;;;3.75;;
51692;SDS011;37777;53.066;21.638;2023-02-22T05:21:33;5.75;;;5.15;;
51692;SDS011;37777;53.066;21.638;2023-02-22T05:28:35;9.07;;;4.88;;
51692;SDS011;37777;53.066;21.638;2023-02-22T05:35:37;5.15;;;3.60;;
51692;SDS011;37777;53.066;21.638;2023-02-22T05:42:40;5.22;;;4.07;;
51692;SDS011;37777;53.066;21.638;2023-02-22T05:49:42;3.95;;;3.55;;
51692;SDS011;37777;53.066;21.638;2023-02-22T05:56:44;5.45;;;4.43;;
51692;SDS011;37777;53.066;21.638;2023-02-22T06:03:47;5.35;;;4.43;;
51692;SDS011;37777;53.066;21.638;2023-02-22T06:10:51;6.00;;;4.38;;
51692;SDS011;37777;53.066;21.638;2023-02-22T06:17:54;4.90;;;3.80;;
51692;SDS011;37777;53.066;21.638;2023-02-22T06:24:57;6.85;;;4.63;;
51692;SDS011;37777;53.066;21.638;2023-02-22T06:31:59;5.13;;;4.35;;
51692;SDS011;37777;53.066;21.638;2023-02-22T06:39:01;6.25;;;4.30;;
51692;SDS011;37777;53.066;21.638;2023-02-22T06:46:03;4.95;;;4.00;;
51692;SDS011;37777;53.066;21.638;2023-02-22T06:53:06;5.13;;;4.60;;
51692;SDS011;37777;53.066;21.638;2023-02-22T07:00:08;4.47;;;3.50;;
51692;SDS011;37777;53.066;21.638;2023-02-22T07:07:10;3.67;;;3.38;;
51692;SDS011;37777;53.066;21.638;2023-02-22T07:14:14;4.32;;;3.90;;
51692;SDS011;37777;53.066;21.638;2023-02-22T07:21:17;5.45;;;3.65;;
51692;SDS011;37777;53.066;21.638;2023-02-22T07:28:19;5.10;;;4.15;;
51692;SDS011;37777;53.066;21.638;2023-02-22T07:35:23;5.18;;;3.95;;
51692;SDS011;37777;53.066;21.638;2023-02-22T07:42:29;4.72;;;3.40;;
51692;SDS011;37777;53.066;21.638;2023-02-22T07:49:31;4.70;;;3.90;;
51692;SDS011;37777;53.066;21.638;2023-02-22T07:56:33;4.80;;;4.00;;
51692;SDS011;37777;53.066;21.638;2023-02-22T08:03:35;4.50;;;4.07;;
51692;SDS011;37777;53.066;21.638;2023-02-22T08:10:38;4.47;;;3.83;;
51692;SDS011;37777;53.066;21.638;2023-02-22T08:17:40;3.83;;;3.53;;
51692;SDS011;37777;53.066;21.638;2023-02-22T08:24:42;8.52;;;4.13;;
51692;SDS011;37777;53.066;21.638;2023-02-22T08:31:49;4.47;;;3.97;;
51692;SDS011;37777;53.066;21.638;2023-02-22T08:38:52;4.45;;;3.72;;
51692;SDS011;37777;53.066;21.638;2023-02-22T08:45:54;4.20;;;3.58;;
51692;SDS011;37777;53.066;21.638;2023-02-22T10:44:41;7.68;;;3.63;;
51692;SDS011;37777;53.066;21.638;2023-02-22T10:51:43;7.25;;;4.35;;
51692;SDS011;37777;53.066;21.638;2023-02-22T10:58:50;7.43;;;4.28;;
51692;SDS011;37777;53.066;21.638;2023-02-22T11:05:52;6.00;;;4.57;;
51692;SDS011;37777;53.066;21.638;2023-02-22T11:12:54;6.25;;;4.47;;
51692;SDS011;37777;53.066;21.638;2023-02-22T11:19:56;14.80;;;7.15;;
51692;SDS011;37777;53.066;21.638;2023-02-22T11:27:00;4.78;;;4.20;;
51692;SDS011;37777;53.066;21.638;2023-02-22T11:34:03;9.40;;;5.20;;
51692;SDS011;37777;53.066;21.638;2023-02-22T11:41:08;4.20;;;3.65;;
51692;SDS011;37777;53.066;21.638;2023-02-22T11:48:17;6.13;;;4.20;;
51692;SDS011;37777;53.066;21.638;2023-02-22T11:55:21;5.78;;;3.70;;
51692;SDS011;37777;53.066;21.638;2023-02-22T12:24:05;7.80;;;4.40;;
51692;SDS011;37777;53.066;21.638;2023-02-22T12:45:39;6.40;;;4.68;;
51692;SDS011;37777;53.066;21.638;2023-02-22T12:59:52;5.88;;;4.32;;
51692;SDS011;37777;53.066;21.638;2023-02-22T13:07:05;5.82;;;4.15;;
51692;SDS011;37777;53.066;21.638;2023-02-22T13:28:19;5.03;;;4.05;;
51692;SDS011;37777;53.066;21.638;2023-02-22T13:42:46;6.03;;;4.78;;
51692;SDS011;37777;53.066;21.638;2023-02-22T14:18:40;7.60;;;5.20;;
51692;SDS011;37777;53.066;21.638;2023-02-22T14:25:42;7.43;;;4.13;;
51692;SDS011;37777;53.066;21.638;2023-02-22T14:32:44;6.63;;;4.80;;
51692;SDS011;37777;53.066;21.638;2023-02-22T14:39:50;11.13;;;5.18;;
51692;SDS011;37777;53.066;21.638;2023-02-22T14:46:53;8.07;;;5.25;;
51692;SDS011;37777;53.066;21.638;2023-02-22T14:54:01;11.40;;;5.50;;
51692;SDS011;37777;53.066;21.638;2023-02-22T15:08:31;7.15;;;4.93;;
51692;SDS011;37777;53.066;21.638;2023-02-22T15:15:35;8.02;;;5.05;;
51692;SDS011;37777;53.066;21.638;2023-02-22T15:22:38;9.20;;;5.80;;
51692;SDS011;37777;53.066;21.638;2023-02-22T15:29:40;8.63;;;5.50;;
51692;SDS011;37777;53.066;21.638;2023-02-22T15:36:46;6.10;;;4.53;;
51692;SDS011;37777;53.066;21.638;2023-02-22T15:51:14;7.30;;;4.60;;
51692;SDS011;37777;53.066;21.638;2023-02-22T16:05:27;12.32;;;6.47;;
51692;SDS011;37777;53.066;21.638;2023-02-22T16:12:33;16.90;;;8.63;;
51692;SDS011;37777;53.066;21.638;2023-02-22T16:19:37;27.92;;;11.73;;
51692;SDS011;37777;53.066;21.638;2023-02-22T16:26:59;15.75;;;7.75;;
51692;SDS011;37777;53.066;21.638;2023-02-22T16:34:02;8.90;;;5.35;;
51692;SDS011;37777;53.066;21.638;2023-02-22T16:41:05;10.05;;;6.03;;
51692;SDS011;37777;53.066;21.638;2023-02-22T16:55:40;11.65;;;6.00;;
51692;SDS011;37777;53.066;21.638;2023-02-22T17:02:45;8.73;;;5.22;;
51692;SDS011;37777;53.066;21.638;2023-02-22T17:09:47;8.57;;;4.78;;
51692;SDS011;37777;53.066;21.638;2023-02-22T17:16:51;7.20;;;4.60;;
51692;SDS011;37777;53.066;21.638;2023-02-22T17:23:54;9.32;;;5.95;;
51692;SDS011;37777;53.066;21.638;2023-02-22T17:30:57;12.68;;;7.30;;
51692;SDS011;37777;53.066;21.638;2023-02-22T17:38:03;17.23;;;7.00;;
51692;SDS011;37777;53.066;21.638;2023-02-22T17:45:07;19.88;;;7.90;;
51692;SDS011;37777;53.066;21.638;2023-02-22T17:52:10;15.95;;;7.57;;
51692;SDS011;37777;53.066;21.638;2023-02-22T17:59:16;17.90;;;8.57;;
51692;SDS011;37777;53.066;21.638;2023-02-22T18:06:20;13.77;;;7.03;;
51692;SDS011;37777;53.066;21.638;2023-02-22T18:13:26;16.92;;;9.48;;
51692;SDS011;37777;53.066;21.638;2023-02-22T18:20:29;16.08;;;7.90;;
51692;SDS011;37777;53.066;21.638;2023-02-22T18:27:53;22.23;;;8.27;;
51692;SDS011;37777;53.066;21.638;2023-02-22T18:34:59;18.83;;;8.07;;
51692;SDS011;37777;53.066;21.638;2023-02-22T18:42:02;10.23;;;5.88;;
51692;SDS011;37777;53.066;21.638;2023-02-22T18:49:04;11.90;;;6.32;;
51692;SDS011;37777;53.066;21.638;2023-02-22T18:56:08;13.27;;;7.07;;
51692;SDS011;37777;53.066;21.638;2023-02-22T19:03:10;14.32;;;6.75;;
51692;SDS011;37777;53.066;21.638;2023-02-22T19:10:13;11.98;;;6.63;;
51692;SDS011;37777;53.066;21.638;2023-02-22T19:17:15;13.35;;;6.20;;
51692;SDS011;37777;53.066;21.638;2023-02-22T19:24:20;10.05;;;6.05;;
51692;SDS011;37777;53.066;21.638;2023-02-22T19:31:24;9.93;;;6.22;;
51692;SDS011;37777;53.066;21.638;2023-02-22T19:38:31;14.43;;;7.00;;
51692;SDS011;37777;53.066;21.638;2023-02-22T19:45:37;11.73;;;6.40;;
51692;SDS011;37777;53.066;21.638;2023-02-22T19:52:40;10.05;;;5.25;;
51692;SDS011;37777;53.066;21.638;2023-02-22T19:59:43;8.70;;;5.53;;
51692;SDS011;37777;53.066;21.638;2023-02-22T20:06:47;9.25;;;5.80;;
51692;SDS011;37777;53.066;21.638;2023-02-22T20:13:50;14.57;;;6.78;;
51692;SDS011;37777;53.066;21.638;2023-02-22T20:20:56;9.77;;;6.78;;
51692;SDS011;37777;53.066;21.638;2023-02-22T20:28:02;15.18;;;6.68;;
51692;SDS011;37777;53.066;21.638;2023-02-22T20:35:09;10.30;;;6.45;;
51692;SDS011;37777;53.066;21.638;2023-02-22T20:42:15;9.63;;;6.30;;
51692;SDS011;37777;53.066;21.638;2023-02-22T20:49:18;12.38;;;6.70;;
51692;SDS011;37777;53.066;21.638;2023-02-22T20:56:23;13.40;;;6.88;;
51692;SDS011;37777;53.066;21.638;2023-02-22T21:03:26;12.68;;;6.20;;
51692;SDS011;37777;53.066;21.638;2023-02-22T21:10:28;13.63;;;6.88;;
51692;SDS011;37777;53.066;21.638;2023-02-22T21:17:30;14.55;;;6.20;;
51692;SDS011;37777;53.066;21.638;2023-02-22T21:24:34;9.65;;;6.10;;
51692;SDS011;37777;53.066;21.638;2023-02-22T21:31:50;11.38;;;6.22;;
51692;SDS011;37777;53.066;21.638;2023-02-22T21:38:56;6.72;;;4.82;;
51692;SDS011;37777;53.066;21.638;2023-02-22T21:46:04;6.57;;;5.22;;
51692;SDS011;37777;53.066;21.638;2023-02-22T21:53:08;8.40;;;5.25;;
51692;SDS011;37777;53.066;21.638;2023-02-22T22:00:12;11.70;;;6.05;;
51692;SDS011;37777;53.066;21.638;2023-02-22T22:07:31;10.02;;;6.47;;
51692;SDS011;37777;53.066;21.638;2023-02-22T22:14:34;10.48;;;6.22;;
51692;SDS011;37777;53.066;21.638;2023-02-22T22:21:38;10.93;;;6.15;;
51692;SDS011;37777;53.066;21.638;2023-02-22T22:28:43;9.60;;;5.70;;
51692;SDS011;37777;53.066;21.638;2023-02-22T22:35:48;10.25;;;6.20;;
51692;SDS011;37777;53.066;21.638;2023-02-22T22:42:50;8.68;;;5.90;;
51692;SDS011;37777;53.066;21.638;2023-02-22T22:49:54;9.38;;;5.53;;
51692;SDS011;37777;53.066;21.638;2023-02-22T22:57:02;8.25;;;5.47;;
51692;SDS011;37777;53.066;21.638;2023-02-22T23:04:08;11.40;;;5.32;;
51692;SDS011;37777;53.066;21.638;2023-02-22T23:11:12;7.32;;;5.70;;
51692;SDS011;37777;53.066;21.638;2023-02-22T23:18:17;8.77;;;5.57;;
51692;SDS011;37777;53.066;21.638;2023-02-22T23:25:21;7.78;;;5.47;;
51692;SDS011;37777;53.066;21.638;2023-02-22T23:32:23;12.23;;;5.68;;
51692;SDS011;37777;53.066;21.638;2023-02-22T23:39:27;8.48;;;5.13;;
51692;SDS011;37777;53.066;21.638;2023-02-22T23:46:29;10.07;;;6.53;;
51692;SDS011;37777;53.066;21.638;2023-02-22T23:53:34;11.43;;;6.38;;
